Terminal Aerodrome Forecast
Issued by NWS

Home | Current Version | Previous Version | Text Only | Print | Product List | Glossary On
Versions: 1 2 3 4 5 6 7 8 9 10 11 12
000
FTUS43 KMPX 182322
TAFAXN
TAF
KAXN 182322Z 1900/1924 28014G21KT P6SM SCT250
     FM190200 26007KT P6SM FEW250
     FM190900 21006KT P6SM SKC
     FM191300 18008KT P6SM FEW250
     FM191600 18013G21KT P6SM FEW200=

USA.gov is the U.S. government's official web portal to all federal, state and local government web resources and services.